Terminal Aerodrome Forecast
Issued by NWS

Home | Current Version | Previous Version | Text Only | Print | Product List | Glossary Off
Versions: 1 2 3 4 5 6 7 8 9 10 11 12 13 14 15

000
FTUS43 KGRB 291138
TAFMTW
TAF
KMTW 291138Z 2912/3012 26008KT P6SM SCT040 BKN080
     FM291300 26013G25KT P6SM SCT070
     FM291600 26020G32KT P6SM SCT100
     FM300000 25012G20KT P6SM SKC
     FM300300 25006KT P6SM SKC=

USA.gov is the U.S. government's official web portal to all federal, state and local government web resources and services.